createdAt,value
2023-04-12T00:03:41.739Z,1.70
2023-04-12T00:08:35.559Z,2.00
2023-04-12T00:13:27.275Z,1.50
2023-04-12T00:18:19.286Z,1.60
2023-04-12T00:23:12.934Z,1.50
2023-04-12T00:28:05.351Z,1.80
2023-04-12T00:32:57.065Z,1.80
2023-04-12T00:37:51.588Z,1.50
2023-04-12T00:42:43.360Z,1.70
2023-04-12T00:47:36.603Z,1.50
2023-04-12T00:52:34.414Z,1.20
2023-04-12T00:57:26.384Z,1.40
2023-04-12T01:02:18.680Z,1.30
2023-04-12T01:07:30.997Z,1.47
2023-04-12T01:12:47.621Z,1.20
2023-04-12T01:18:04.247Z,1.00
2023-04-12T01:23:24.216Z,1.57
2023-04-12T01:28:22.546Z,1.30
2023-04-12T01:33:16.124Z,1.43
2023-04-12T01:38:07.946Z,1.10
2023-04-12T01:43:09.624Z,1.20
2023-04-12T01:48:02.270Z,1.20
2023-04-12T01:53:26.896Z,0.90
2023-04-12T01:58:22.073Z,1.23
2023-04-12T02:03:14.403Z,1.00
2023-04-12T02:08:06.540Z,1.03
2023-04-12T02:13:00.444Z,1.10
2023-04-12T02:17:53.910Z,0.90
2023-04-12T02:22:46.661Z,1.13
2023-04-12T02:27:38.750Z,1.00
2023-04-12T02:32:31.280Z,0.93
2023-04-12T02:37:27.441Z,1.00
2023-04-12T02:42:19.447Z,1.00
2023-04-12T02:47:14.193Z,1.13
2023-04-12T02:52:09.869Z,1.00
2023-04-12T02:57:09.423Z,0.90
2023-04-12T03:02:05.930Z,1.20
2023-04-12T03:06:59.214Z,1.40
2023-04-12T03:12:04.290Z,1.37
2023-04-12T03:17:00.371Z,1.50
2023-04-12T03:21:52.687Z,1.60
2023-04-12T03:26:45.083Z,1.60
2023-04-12T03:31:41.925Z,1.17
2023-04-12T03:36:34.998Z,1.40
2023-04-12T03:41:37.416Z,1.40
2023-04-12T03:46:30.137Z,1.60
2023-04-12T03:51:27.141Z,1.20
2023-04-12T03:56:25.224Z,1.60
2023-04-12T04:01:20.237Z,1.80
2023-04-12T04:06:13.356Z,1.50
2023-04-12T04:11:07.233Z,1.50
2023-04-12T04:21:15.897Z,2.00
2023-04-12T04:26:12.514Z,1.80
2023-04-12T04:36:30.081Z,1.40
2023-04-12T04:46:38.694Z,2.10
2023-04-12T04:51:32.806Z,1.87
2023-04-12T22:30:49.759Z,1.00
2023-04-12T22:35:41.785Z,0.80
2023-04-12T22:40:33.555Z,0.90
2023-04-12T22:45:25.358Z,0.80
2023-04-12T22:50:17.146Z,0.90
2023-04-12T22:55:11.638Z,0.67
2023-04-12T23:00:07.442Z,0.80
2023-04-12T23:04:59.937Z,0.90
2023-04-12T23:09:52.720Z,0.70
2023-04-12T23:14:44.997Z,0.80
2023-04-12T23:19:36.722Z,0.90
2023-04-12T23:24:28.500Z,0.80
2023-04-12T23:29:21.628Z,0.70
2023-04-12T23:34:13.654Z,0.90
2023-04-12T23:39:09.407Z,0.70
2023-04-12T23:44:01.971Z,0.80
2023-04-12T23:48:53.934Z,1.07
2023-04-12T23:53:45.820Z,1.00
2023-04-12T23:58:37.530Z,1.03
